createdAt,value
2018-09-11T00:01:43.271Z,15.70
2018-09-11T00:04:11.624Z,15.70
2018-09-11T00:06:39.964Z,15.60
2018-09-11T00:09:10.460Z,15.60
2018-09-11T00:11:38.757Z,15.50
2018-09-11T00:14:07.127Z,15.50
2018-09-11T00:16:35.549Z,15.50
2018-09-11T00:19:03.940Z,15.40
2018-09-11T00:21:32.310Z,15.40
2018-09-11T00:24:00.738Z,15.40
2018-09-11T00:26:29.063Z,15.40
2018-09-11T00:28:57.355Z,15.40
2018-09-11T00:31:25.685Z,15.50
2018-09-11T00:33:54.043Z,15.40
2018-09-11T00:36:22.381Z,15.40
2018-09-11T00:38:50.763Z,15.30
2018-09-11T00:41:19.118Z,15.30
2018-09-11T00:43:47.428Z,15.30
2018-09-11T00:46:15.780Z,15.20
2018-09-11T00:48:44.061Z,15.20
2018-09-11T00:51:12.359Z,15.20
2018-09-11T00:53:40.650Z,15.20
2018-09-11T00:56:08.967Z,15.20
2018-09-11T00:58:37.303Z,15.20
2018-09-11T01:01:05.708Z,15.10
2018-09-11T01:03:34.036Z,15.10
2018-09-11T01:06:02.346Z,15.00
2018-09-11T01:08:30.626Z,15.00
2018-09-11T01:10:58.912Z,15.00
2018-09-11T01:13:27.299Z,14.90
2018-09-11T01:15:55.631Z,14.90
2018-09-11T01:18:23.931Z,14.90
2018-09-11T01:20:52.354Z,14.90
2018-09-11T01:23:20.640Z,14.90
2018-09-11T01:25:48.941Z,14.90
2018-09-11T01:28:17.250Z,14.80
2018-09-11T01:30:45.591Z,14.90
2018-09-11T01:33:13.871Z,14.80
2018-09-11T01:35:42.176Z,14.80
2018-09-11T01:38:10.487Z,14.80
2018-09-11T01:40:38.772Z,14.80
2018-09-11T01:43:07.042Z,14.80
2018-09-11T01:45:35.407Z,14.80
2018-09-11T01:48:03.729Z,14.80
2018-09-11T01:50:32.041Z,14.70
2018-09-11T01:53:01.380Z,14.70
2018-09-11T01:55:29.713Z,14.70
2018-09-11T01:57:58.093Z,14.70
2018-09-11T02:00:26.421Z,14.70
2018-09-11T02:02:54.802Z,14.70
2018-09-11T02:05:23.142Z,14.70
2018-09-11T02:07:51.500Z,14.70
2018-09-11T02:10:19.843Z,14.70
2018-09-11T02:12:48.220Z,14.60
2018-09-11T02:15:16.661Z,14.50
2018-09-11T02:17:45.041Z,14.60
2018-09-11T02:20:13.510Z,14.50
2018-09-11T02:22:41.801Z,14.50
2018-09-11T02:25:10.131Z,14.50
2018-09-11T02:27:38.470Z,14.50
2018-09-11T02:30:06.910Z,14.40
2018-09-11T02:32:35.293Z,14.50
2018-09-11T02:35:03.664Z,14.50
2018-09-11T02:37:32.041Z,14.50
2018-09-11T02:40:00.380Z,14.50
2018-09-11T02:42:28.758Z,14.50
2018-09-11T02:44:57.134Z,14.50
2018-09-11T02:47:25.533Z,14.40
2018-09-11T02:49:53.865Z,14.40
2018-09-11T02:52:22.234Z,14.40
2018-09-11T02:54:50.786Z,14.40
2018-09-11T02:57:19.138Z,14.40
2018-09-11T02:59:47.493Z,14.50
2018-09-11T03:02:15.892Z,14.50
2018-09-11T03:04:44.249Z,14.40
2018-09-11T03:07:12.567Z,14.50
2018-09-11T03:09:40.937Z,14.50
2018-09-11T03:12:09.292Z,14.50
2018-09-11T03:14:37.601Z,14.50
2018-09-11T03:17:05.990Z,14.40
2018-09-11T03:19:34.334Z,14.40
2018-09-11T03:22:02.646Z,14.40
2018-09-11T03:24:31.007Z,14.40
2018-09-11T03:26:59.341Z,14.40
2018-09-11T03:29:27.621Z,14.50
2018-09-11T03:31:55.943Z,14.60
2018-09-11T03:34:24.299Z,14.60
2018-09-11T03:36:52.629Z,14.60
2018-09-11T03:39:21.027Z,14.40
2018-09-11T03:41:49.426Z,14.50
2018-09-11T03:44:17.909Z,14.50
2018-09-11T03:46:46.164Z,14.50
2018-09-11T03:49:14.481Z,14.60
2018-09-11T03:51:42.806Z,14.50
2018-09-11T03:54:11.102Z,14.50
2018-09-11T03:56:39.474Z,14.50
2018-09-11T03:59:07.756Z,14.50
2018-09-11T04:01:36.795Z,14.50
2018-09-11T04:04:05.207Z,14.40
2018-09-11T04:06:33.556Z,14.40
2018-09-11T04:09:01.918Z,14.50
2018-09-11T04:11:30.239Z,14.50
2018-09-11T04:13:58.546Z,14.60
2018-09-11T04:16:26.898Z,14.60
2018-09-11T04:18:55.222Z,14.60
2018-09-11T04:21:23.551Z,14.50
2018-09-11T04:23:51.859Z,14.40
2018-09-11T04:26:20.294Z,14.40
2018-09-11T04:28:48.672Z,14.40
2018-09-11T04:31:17.056Z,14.30
2018-09-11T04:33:45.432Z,14.40
2018-09-11T04:36:13.829Z,14.50
2018-09-11T04:38:42.171Z,14.50
2018-09-11T04:41:10.527Z,14.50
2018-09-11T04:43:38.730Z,14.50
2018-09-11T04:46:10.856Z,14.60
2018-09-11T04:48:39.719Z,14.50
2018-09-11T04:51:08.063Z,14.60
2018-09-11T04:53:36.795Z,14.60
2018-09-11T04:56:05.180Z,14.60
2018-09-11T04:58:33.598Z,14.50
2018-09-11T05:01:02.011Z,14.50
2018-09-11T05:03:30.420Z,14.50
2018-09-11T05:05:58.969Z,14.60
2018-09-11T05:08:27.319Z,14.60
2018-09-11T05:10:55.826Z,14.60
2018-09-11T05:13:24.218Z,14.50
2018-09-11T05:15:52.581Z,14.60
2018-09-11T05:18:20.966Z,14.50
2018-09-11T05:20:49.276Z,14.60
2018-09-11T05:23:17.619Z,14.60
2018-09-11T05:25:45.976Z,14.60
2018-09-11T05:28:14.262Z,14.70
2018-09-11T05:30:42.617Z,14.80
2018-09-11T05:33:10.946Z,14.80
2018-09-11T05:35:39.265Z,14.90
2018-09-11T05:38:07.841Z,15.00
2018-09-11T05:40:36.132Z,15.00
2018-09-11T05:43:04.524Z,15.00
2018-09-11T05:45:32.760Z,15.10
2018-09-11T05:48:01.065Z,15.00
2018-09-11T05:50:29.419Z,15.10
2018-09-11T05:52:58.941Z,15.10
2018-09-11T05:55:27.277Z,15.20
2018-09-11T05:57:55.654Z,15.30
2018-09-11T06:00:24.059Z,15.40
2018-09-11T06:02:52.429Z,15.50
2018-09-11T06:05:20.753Z,15.50
2018-09-11T06:07:49.070Z,15.60
2018-09-11T06:10:17.462Z,15.80
2018-09-11T06:12:45.842Z,15.90
2018-09-11T06:15:14.200Z,16.00
2018-09-11T06:17:42.613Z,16.10
2018-09-11T06:39:58.670Z,16.60
2018-09-11T06:42:28.390Z,16.60
2018-09-11T06:44:57.777Z,16.70
2018-09-11T06:47:27.285Z,16.70
2018-09-11T06:49:56.051Z,16.70
2018-09-11T06:52:25.081Z,16.80
2018-09-11T06:59:52.606Z,17.00
2018-09-11T07:02:22.110Z,17.20
2018-09-11T07:04:50.341Z,17.20
2018-09-11T07:07:18.623Z,17.20
2018-09-11T07:09:46.996Z,17.30
2018-09-11T07:12:15.378Z,17.60
2018-09-11T07:14:43.775Z,17.70
2018-09-11T07:17:12.123Z,17.90
2018-09-11T07:19:40.546Z,18.10
2018-09-11T07:22:09.054Z,18.30
2018-09-11T07:24:37.645Z,18.50
2018-09-11T07:27:06.061Z,18.80
2018-09-11T07:29:34.548Z,18.80
2018-09-11T07:32:02.926Z,18.90
2018-09-11T07:34:31.288Z,19.00
2018-09-11T07:36:59.590Z,19.20
2018-09-11T07:39:28.017Z,19.40
2018-09-11T07:41:56.383Z,19.50
2018-09-11T07:44:24.775Z,19.70
2018-09-11T07:46:53.132Z,19.70
2018-09-11T07:49:21.483Z,19.70
2018-09-11T07:51:49.819Z,19.70
2018-09-11T07:54:18.299Z,19.80
2018-09-11T07:56:46.644Z,20.00
2018-09-11T07:59:15.073Z,20.30
2018-09-11T08:01:43.441Z,20.50
2018-09-11T08:04:11.773Z,20.60
2018-09-11T08:06:40.149Z,20.60
2018-09-11T08:09:10.584Z,20.70
2018-09-11T08:11:39.005Z,20.70
2018-09-11T08:14:07.567Z,20.60
2018-09-11T08:16:36.022Z,20.60
2018-09-11T08:19:04.534Z,20.80
2018-09-11T08:21:32.993Z,21.10
2018-09-11T08:24:01.384Z,21.10
2018-09-11T08:26:29.780Z,20.70
2018-09-11T08:28:58.115Z,20.70
2018-09-11T08:31:26.483Z,20.80
2018-09-11T08:33:54.863Z,20.90
2018-09-11T08:36:23.265Z,20.80
2018-09-11T08:38:51.608Z,20.80
2018-09-11T08:41:20.023Z,21.30
2018-09-11T08:43:48.450Z,21.30
2018-09-11T08:46:16.781Z,21.50
2018-09-11T08:48:45.207Z,21.60
2018-09-11T08:51:13.566Z,21.60
2018-09-11T08:53:42.338Z,21.80
2018-09-11T08:56:10.641Z,21.90
2018-09-11T08:58:39.022Z,22.20
2018-09-11T09:01:07.573Z,22.40
2018-09-11T09:03:35.924Z,22.40
2018-09-11T09:06:04.336Z,22.60
2018-09-11T09:08:33.703Z,22.70
2018-09-11T09:11:02.013Z,22.80
2018-09-11T09:13:30.372Z,22.70
2018-09-11T09:15:58.740Z,22.70
2018-09-11T09:18:27.113Z,22.80
2018-09-11T09:20:55.537Z,22.80
2018-09-11T09:23:23.832Z,22.90
2018-09-11T09:25:52.132Z,23.10
2018-09-11T09:28:20.460Z,23.20
2018-09-11T09:30:48.749Z,23.20
2018-09-11T09:33:17.043Z,23.00
2018-09-11T09:35:45.407Z,23.00
2018-09-11T09:38:13.761Z,23.20
2018-09-11T09:40:42.147Z,23.10
2018-09-11T09:43:10.562Z,23.10
2018-09-11T09:45:38.916Z,22.90
2018-09-11T09:48:07.283Z,23.00
2018-09-11T09:50:35.606Z,23.20
2018-09-11T09:53:03.941Z,23.10
2018-09-11T09:55:32.250Z,23.50
2018-09-11T09:58:00.590Z,23.50
2018-09-11T10:00:34.355Z,23.10
2018-09-11T10:03:02.656Z,23.10
2018-09-11T10:05:31.011Z,23.50
2018-09-11T10:07:59.297Z,23.70
2018-09-11T10:10:27.620Z,24.00
2018-09-11T10:12:56.014Z,23.90
2018-09-11T10:15:24.493Z,24.00
2018-09-11T10:17:53.147Z,24.00
2018-09-11T10:20:21.666Z,24.20
2018-09-11T10:22:49.998Z,24.80
2018-09-11T10:25:18.471Z,25.30
2018-09-11T10:27:47.230Z,25.50
2018-09-11T10:30:15.931Z,25.20
2018-09-11T10:32:45.658Z,24.80
2018-09-11T10:35:14.429Z,24.90
2018-09-11T10:37:43.100Z,25.10
2018-09-11T10:40:11.763Z,25.20
2018-09-11T10:42:40.298Z,24.80
2018-09-11T10:45:08.965Z,24.80
2018-09-11T10:47:37.335Z,24.80
2018-09-11T10:51:08.508Z,24.90
2018-09-11T10:53:37.821Z,25.40
2018-09-11T10:56:06.634Z,25.60
2018-09-11T10:58:35.351Z,25.70
2018-09-11T11:01:04.833Z,25.70
2018-09-11T11:03:33.558Z,26.00
2018-09-11T11:06:02.325Z,26.30
2018-09-11T11:08:30.905Z,26.30
2018-09-11T11:17:43.634Z,26.40
2018-09-11T11:20:12.164Z,26.00
2018-09-11T11:22:40.650Z,26.00
2018-09-11T11:25:09.219Z,26.30
2018-09-11T11:27:37.835Z,26.60
2018-09-11T11:30:06.152Z,26.90
2018-09-11T11:32:34.367Z,26.80
2018-09-11T11:35:02.776Z,27.00
2018-09-11T11:37:31.161Z,27.00
2018-09-11T11:39:59.503Z,27.10
2018-09-11T11:42:28.030Z,27.00
2018-09-11T11:44:56.211Z,26.90
2018-09-11T11:47:24.972Z,26.60
2018-09-11T11:49:54.649Z,26.60
2018-09-11T11:52:23.413Z,27.00
2018-09-11T11:54:52.193Z,27.40
2018-09-11T11:57:20.975Z,27.90
2018-09-11T11:59:51.122Z,27.60
2018-09-11T12:02:21.966Z,27.60
2018-09-11T12:04:50.989Z,27.80
2018-09-11T12:07:20.041Z,27.60
2018-09-11T12:09:48.759Z,27.30
2018-09-11T12:12:17.440Z,27.20
2018-09-11T12:14:46.340Z,27.40
2018-09-11T12:17:14.993Z,27.40
2018-09-11T12:19:43.735Z,27.60
2018-09-11T12:22:12.565Z,27.40
2018-09-11T12:24:41.238Z,27.00
2018-09-11T12:27:09.566Z,27.00
2018-09-11T12:29:39.917Z,26.80
2018-09-11T12:32:08.286Z,26.70
2018-09-11T12:34:36.598Z,26.90
2018-09-11T12:37:05.039Z,26.90
2018-09-11T12:39:33.495Z,27.10
2018-09-11T12:42:01.836Z,27.30
2018-09-11T12:44:30.524Z,27.70
2018-09-11T12:46:59.225Z,27.60
2018-09-11T12:49:27.523Z,27.40
2018-09-11T12:51:56.005Z,27.00
2018-09-11T12:54:24.638Z,27.30
2018-09-11T12:56:53.404Z,27.60
2018-09-11T12:59:21.888Z,28.00
2018-09-11T13:01:50.087Z,28.00
2018-09-11T13:04:18.225Z,28.30
2018-09-11T13:06:46.376Z,28.60
2018-09-11T13:09:14.566Z,28.30
2018-09-11T13:11:42.780Z,28.20
2018-09-11T13:14:12.013Z,28.00
2018-09-11T13:16:40.251Z,27.80
2018-09-11T13:19:08.430Z,27.80
2018-09-11T13:21:36.572Z,27.50
2018-09-11T13:24:04.796Z,27.40
2018-09-11T13:26:32.968Z,27.80
2018-09-11T13:29:01.133Z,28.10
2018-09-11T13:31:29.368Z,28.20
2018-09-11T13:33:57.662Z,28.30
2018-09-11T13:36:25.978Z,28.20
2018-09-11T13:38:54.113Z,28.00
2018-09-11T13:41:22.351Z,27.90
2018-09-11T13:43:50.531Z,27.70
2018-09-11T13:46:18.669Z,27.60
2018-09-11T13:48:46.788Z,27.90
2018-09-11T13:51:15.016Z,27.90
2018-09-11T13:53:43.177Z,28.00
2018-09-11T13:56:11.577Z,28.10
2018-09-11T13:58:40.726Z,28.10
2018-09-11T14:01:09.080Z,28.40
2018-09-11T14:03:37.284Z,28.40
2018-09-11T14:06:05.553Z,28.00
2018-09-11T14:08:33.908Z,27.90
2018-09-11T14:11:02.046Z,28.10
2018-09-11T14:13:30.204Z,27.60
2018-09-11T14:15:58.433Z,27.90
2018-09-11T14:18:26.597Z,27.90
2018-09-11T14:20:55.712Z,27.90
2018-09-11T14:23:23.952Z,28.00
2018-09-11T14:25:52.130Z,28.30
2018-09-11T14:28:20.283Z,28.90
2018-09-11T14:30:48.473Z,28.80
2018-09-11T14:33:16.669Z,28.80
2018-09-11T14:35:44.904Z,28.80
2018-09-11T14:38:13.281Z,28.50
2018-09-11T14:40:41.515Z,28.40
2018-09-11T14:43:09.769Z,28.30
2018-09-11T14:45:38.001Z,28.30
2018-09-11T14:48:05.866Z,28.00
2018-09-11T14:50:34.063Z,28.10
2018-09-11T14:53:03.009Z,27.90
2018-09-11T14:55:31.653Z,27.70
2018-09-11T14:57:59.832Z,27.70
2018-09-11T15:00:28.046Z,27.40
2018-09-11T15:02:56.319Z,27.30
2018-09-11T15:05:24.634Z,27.40
2018-09-11T15:07:52.933Z,27.40
2018-09-11T15:10:21.309Z,27.40
2018-09-11T15:12:50.210Z,27.50
2018-09-11T15:15:18.547Z,27.30
2018-09-11T15:17:46.763Z,26.90
2018-09-11T15:20:14.983Z,26.80
2018-09-11T15:22:43.349Z,26.80
2018-09-11T15:25:11.646Z,26.50
2018-09-11T15:27:39.859Z,26.30
2018-09-11T15:30:08.243Z,26.50
2018-09-11T15:32:36.576Z,26.50
2018-09-11T15:35:04.925Z,26.60
2018-09-11T15:37:33.179Z,26.60
2018-09-11T15:40:01.474Z,26.80
2018-09-11T15:42:30.767Z,26.70
2018-09-11T15:44:58.884Z,26.60
2018-09-11T15:47:27.149Z,26.60
2018-09-11T15:49:55.314Z,26.40
2018-09-11T15:52:23.516Z,26.20
2018-09-11T15:54:51.687Z,25.90
2018-09-11T15:57:19.885Z,25.80
2018-09-11T15:59:48.089Z,25.40
2018-09-11T16:02:16.494Z,24.70
2018-09-11T16:04:44.854Z,24.10
2018-09-11T16:07:13.143Z,23.70
2018-09-11T16:09:41.386Z,23.50
2018-09-11T16:12:09.553Z,23.40
2018-09-11T16:14:37.816Z,23.30
2018-09-11T16:17:06.721Z,23.10
2018-09-11T16:19:35.320Z,23.10
2018-09-11T16:22:03.818Z,23.00
2018-09-11T16:24:32.238Z,23.00
2018-09-11T16:27:00.578Z,22.90
2018-09-11T16:29:28.963Z,22.80
2018-09-11T16:31:57.385Z,22.80
2018-09-11T16:34:25.807Z,22.80
2018-09-11T16:36:54.203Z,22.70
2018-09-11T16:39:22.434Z,22.60
2018-09-11T16:41:50.676Z,22.60
2018-09-11T16:44:18.915Z,22.60
2018-09-11T16:46:49.209Z,22.50
2018-09-11T16:49:17.479Z,22.50
2018-09-11T16:51:45.746Z,22.50
2018-09-11T16:54:13.990Z,22.40
2018-09-11T16:56:42.310Z,22.40
2018-09-11T16:59:10.569Z,22.30
2018-09-11T17:01:38.856Z,22.20
2018-09-11T17:04:07.159Z,22.10
2018-09-11T17:06:35.448Z,22.10
2018-09-11T17:09:05.833Z,22.10
2018-09-11T17:11:34.067Z,22.20
2018-09-11T17:14:02.308Z,22.30
2018-09-11T17:16:30.584Z,22.20
2018-09-11T17:18:58.838Z,22.00
2018-09-11T17:21:26.959Z,21.90
2018-09-11T17:24:00.929Z,21.70
2018-09-11T17:26:29.892Z,21.50
2018-09-11T17:28:58.027Z,21.30
2018-09-11T17:31:26.207Z,21.20
2018-09-11T17:33:54.345Z,21.00
2018-09-11T17:36:22.620Z,20.90
2018-09-11T17:38:50.815Z,20.80
2018-09-11T17:41:19.041Z,20.70
2018-09-11T17:43:47.219Z,20.60
2018-09-11T17:46:15.423Z,20.50
2018-09-11T17:48:43.814Z,20.40
2018-09-11T17:51:12.174Z,20.40
2018-09-11T17:53:40.357Z,20.30
2018-09-11T17:56:08.675Z,20.20
2018-09-11T17:58:36.934Z,20.20
2018-09-11T18:01:05.133Z,20.10
2018-09-11T18:03:33.299Z,20.00
2018-09-11T18:06:01.461Z,19.90
2018-09-11T18:08:29.824Z,19.80
2018-09-11T18:10:58.016Z,19.70
2018-09-11T18:13:26.228Z,19.70
2018-09-11T18:15:54.359Z,19.70
2018-09-11T18:18:22.562Z,19.60
2018-09-11T18:20:50.762Z,19.60
2018-09-11T18:23:19.000Z,19.60
2018-09-11T18:25:47.368Z,19.60
2018-09-11T18:28:15.598Z,19.60
2018-09-11T18:30:43.775Z,19.60
2018-09-11T18:33:12.088Z,19.70
2018-09-11T18:35:40.310Z,19.70
2018-09-11T18:38:08.559Z,19.80
2018-09-11T18:40:36.754Z,19.80
2018-09-11T18:43:05.019Z,19.70
2018-09-11T18:45:33.232Z,19.70
2018-09-11T18:48:09.451Z,19.60
2018-09-11T18:50:43.204Z,19.60
2018-09-11T18:53:16.547Z,19.50
2018-09-11T18:55:49.425Z,19.50
2018-09-11T18:58:21.870Z,19.40
2018-09-11T19:01:03.147Z,19.40
2018-09-11T19:03:39.660Z,19.30
2018-09-11T19:06:16.257Z,19.30
2018-09-11T19:08:53.571Z,19.20
2018-09-11T19:11:24.907Z,19.20
2018-09-11T19:13:54.142Z,19.20
2018-09-11T19:16:23.204Z,19.10
2018-09-11T19:18:53.780Z,19.10
2018-09-11T19:21:22.945Z,19.00
2018-09-11T19:23:52.451Z,19.00
2018-09-11T19:26:21.765Z,18.90
2018-09-11T19:28:51.011Z,18.80
2018-09-11T19:31:20.919Z,18.70
2018-09-11T19:33:50.140Z,18.70
2018-09-11T19:36:19.322Z,18.60
2018-09-11T19:38:48.240Z,18.60
2018-09-11T19:41:18.521Z,18.60
2018-09-11T19:43:49.049Z,18.60
2018-09-11T19:46:20.738Z,18.60
2018-09-11T19:48:50.435Z,18.50
2018-09-11T19:51:20.766Z,18.50
2018-09-11T19:53:52.200Z,18.50
2018-09-11T19:56:23.953Z,18.40
2018-09-11T19:58:55.875Z,18.40
2018-09-11T20:01:26.851Z,18.40
2018-09-11T20:03:55.524Z,18.40
2018-09-11T20:06:23.645Z,18.40
2018-09-11T20:08:51.883Z,18.30
2018-09-11T20:11:20.187Z,18.20
2018-09-11T20:13:48.565Z,18.30
2018-09-11T20:16:16.751Z,18.20
2018-09-11T20:18:45.242Z,18.20
2018-09-11T20:21:13.507Z,18.20
2018-09-11T20:23:41.830Z,18.10
2018-09-11T20:26:10.247Z,18.10
2018-09-11T20:28:39.578Z,18.00
2018-09-11T20:31:07.756Z,18.00
2018-09-11T20:33:36.009Z,18.00
2018-09-11T20:36:04.452Z,18.00
2018-09-11T20:38:32.602Z,18.00
2018-09-11T20:41:00.763Z,18.00
2018-09-11T20:43:28.947Z,18.10
2018-09-11T20:45:57.168Z,18.00
2018-09-11T20:48:25.508Z,17.90
2018-09-11T20:50:53.793Z,17.90
2018-09-11T20:53:21.903Z,17.90
2018-09-11T20:55:50.211Z,17.80
2018-09-11T20:58:18.304Z,17.70
2018-09-11T21:00:46.433Z,17.70
2018-09-11T21:03:14.578Z,17.70
2018-09-11T21:05:42.719Z,17.60
2018-09-11T21:08:10.911Z,17.60
2018-09-11T21:10:39.111Z,17.60
2018-09-11T21:13:07.385Z,17.60
2018-09-11T21:15:35.533Z,17.70
2018-09-11T21:18:03.760Z,17.80
2018-09-11T21:20:31.971Z,17.90
2018-09-11T21:23:00.244Z,18.00
2018-09-11T21:25:28.480Z,17.90
2018-09-11T21:27:56.694Z,18.00
2018-09-11T21:30:24.828Z,18.10
2018-09-11T21:32:53.145Z,18.20
2018-09-11T21:35:21.409Z,18.20
2018-09-11T21:37:49.682Z,18.30
2018-09-11T21:40:17.928Z,18.30
2018-09-11T21:42:46.194Z,18.40
2018-09-11T21:45:14.380Z,18.30
2018-09-11T21:47:42.509Z,18.40
2018-09-11T21:50:10.769Z,18.40
2018-09-11T21:52:56.863Z,18.40
2018-09-11T21:56:04.733Z,18.30
2018-09-11T22:04:08.324Z,18.20
2018-09-11T22:06:36.440Z,18.10
2018-09-11T22:09:07.578Z,17.80
2018-09-11T22:11:35.752Z,17.70
2018-09-11T22:14:04.061Z,17.70
2018-09-11T22:16:32.385Z,17.60
2018-09-11T22:19:01.822Z,17.50
2018-09-11T22:21:30.123Z,17.50
2018-09-11T22:23:58.419Z,17.50
2018-09-11T22:26:26.768Z,17.50
2018-09-11T22:28:55.266Z,17.40
2018-09-11T22:31:23.587Z,17.40
2018-09-11T22:33:51.910Z,17.30
2018-09-11T22:36:20.214Z,17.30
2018-09-11T22:38:48.513Z,17.30
2018-09-11T22:41:16.880Z,17.40
2018-09-11T22:43:45.356Z,17.30
2018-09-11T22:46:13.906Z,17.30
2018-09-11T22:48:42.241Z,17.40
2018-09-11T22:51:10.645Z,17.30
2018-09-11T22:53:38.972Z,17.30
2018-09-11T22:56:10.244Z,17.30
2018-09-11T22:58:40.683Z,17.20
2018-09-11T23:01:11.155Z,17.20
2018-09-11T23:03:41.476Z,17.20
2018-09-11T23:06:11.881Z,17.20
2018-09-11T23:08:41.744Z,17.20
2018-09-11T23:11:12.505Z,17.10
2018-09-11T23:13:41.886Z,17.00
2018-09-11T23:16:11.163Z,16.90
2018-09-11T23:18:40.472Z,16.80
2018-09-11T23:21:10.083Z,16.70
2018-09-11T23:23:40.594Z,16.60
2018-09-11T23:26:10.177Z,16.60
2018-09-11T23:28:40.293Z,16.60
2018-09-11T23:31:10.780Z,16.50
2018-09-11T23:33:41.356Z,16.40
2018-09-11T23:36:09.721Z,16.30
2018-09-11T23:38:37.877Z,16.20
2018-09-11T23:41:06.177Z,16.20
2018-09-11T23:43:34.365Z,16.10
2018-09-11T23:46:02.460Z,16.00
2018-09-11T23:48:30.658Z,15.90
2018-09-11T23:50:58.924Z,16.00
2018-09-11T23:53:27.045Z,16.10
2018-09-11T23:55:55.218Z,16.10
2018-09-11T23:58:23.460Z,16.20
